Impacts METAR Board
IDs:

KIAD - Washington/Dulles In, VA, US

Updated at: 0800 UTC 22 Jul 2018
Potential Impact None Slight Moderate High
Time 21/20Z 21/21Z 21/22Z 21/23Z 22/00Z 22/01Z 22/02Z 22/03Z 22/04Z 22/05Z 22/06Z 22/07Z 22/08Z
Temp65 64 64 65 65 65 65 64 63 63 62 62 61
Dewpt64 64 64 65 65 65 65 64 62 63 62 62 61
Altim29.86 29.82 29.79 29.79 29.75 29.74 29.73 29.71 29.70 29.69 29.70 29.71 29.72
VIS1.5 1.5 1 1 1.5 3 1.5 2 2 6 10 10 10
CIG8 7 6 6 7 7 4 8 8 11 13 19 36
CoverOVCOVCOVCOVCOVCOVCOVCOVCOVCOVCOVCBKNBKN
FltCatIFRIFRIFRIFRIFRIFRLIFRIFRIFRMVFRMVFRMVFRVFR
WX+RA BR+RA BR+RA BR+RA BR+RA BRRA BR+RA BR+RA BR-RA BR-RA BR------
WDir3603603303403503603403303203102802800
WSpd12 13 12 12 12 12 10 10 15 11 9 8 0
WGst-- -- -- -- -- -- -- -- 21 -- -- -- --
Raw hourly METARs
KIAD 211952Z 36012KT 1 1/2SM R01R/6000VP6000FT +RA BR BKN008 OVC014 18/18 A2986 RMK AO2 SLP108 P0028 T01830178 $
KIAD 212052Z 36013KT 1 1/2SM R01R/6000VP6000FT +RA BR OVC007 18/18 A2982 RMK AO2 SLP097 P0039 60080 T01780178 58025 $
KIAD 212205Z 33012KT 1SM R01R/4000VP6000FT +RA BR BKN006 OVC018 18/18 A2979 RMK AO2 P0020 T01780178 $
KIAD 212252Z 34012KT 1SM R01R/4000VP6000FT +RA BR BKN006 OVC018 18/18 A2979 RMK AO2 SLP084 P0078 T01830183 $
KIAD 212352Z 35012KT 1 1/2SM +RA BR BKN007 OVC016 18/18 A2975 RMK AO2 PK WND 35028/2320 SLP073 P0111 60327 T01830183 10194 20178 58024 $
KIAD 220052Z 36012KT 3SM RA BR BKN007 OVC022 18/18 A2974 RMK AO2 SLP069 P0019 T01830183 $
KIAD 220152Z 34010KT 1 1/2SM +RA BR BKN004 OVC013 18/18 A2973 RMK AO2 SLP064 P0039 T01830183 $
KIAD 220252Z 33010KT 2SM +RA BR SCT004 BKN008 OVC018 18/18 A2971 RMK AO2 SLP058 P0041 60099 T01780178 58016 $
KIAD 220352Z 32015G21KT 2SM -RA BR FEW004 BKN008 OVC027 17/17 A2970 RMK AO2 SLP056 P0015 T01720167 $
KIAD 220452Z 31011KT 6SM -RA BR SCT008 OVC011 17/17 A2969 RMK AO2 SLP051 P0002 T01720172 402330167 $
KIAD 220552Z 28009KT 10SM SCT008 OVC013 17/17 A2970 RMK AO2 RAE49 SLP057 P0000 60116 T01670167 10189 20167 55001 $
KIAD 220652Z 28008KT 10SM FEW013 BKN019 17/17 A2971 RMK AO2 RAB04E14 SLP058 P0000 T01670167 $
KIAD 220752Z 00000KT 10SM SCT028 BKN036 BKN043 16/16 A2972 RMK AO2 SLP061 T01610161 $



Page loaded:  08:34 UTC  |   01:34 AM Pacific  |   02:34 AM Mountain  |   03:34 AM Central  |   04:34 AM Eastern

 

ADVISORIES

FORECASTS

FORECASTS

OBSERVATIONS

USER TOOLS

ABOUT US